createdAt,value
2022-10-06T00:01:20.626Z,25.9
2022-10-06T00:06:02.929Z,25
2022-10-06T00:10:45.237Z,22.3
2022-10-06T00:15:27.449Z,25.4
2022-10-06T00:20:09.759Z,24.6
2022-10-06T00:24:52.090Z,26.6
2022-10-06T00:29:33.385Z,23.7
2022-10-06T00:34:14.696Z,26.1
2022-10-06T00:38:56.904Z,27.5
2022-10-06T00:43:39.226Z,24.4
2022-10-06T00:48:21.530Z,26.6
2022-10-06T00:53:03.745Z,24.8
2022-10-06T00:57:46.057Z,28.8
2022-10-06T01:02:28.366Z,23
2022-10-06T01:07:10.674Z,34
2022-10-06T01:11:52.887Z,28.9
2022-10-06T01:16:35.200Z,26.5
2022-10-06T01:21:17.510Z,31.3
2022-10-06T01:25:59.809Z,30
2022-10-06T01:30:42.038Z,27.9
2022-10-06T01:35:23.363Z,28.5
2022-10-06T01:40:05.560Z,28.7
2022-10-06T01:44:47.874Z,25.7
2022-10-06T01:49:30.184Z,26.2
2022-10-06T01:54:12.477Z,20.8
2022-10-06T01:58:54.706Z,25.8
2022-10-06T02:03:37.016Z,23.8
2022-10-06T02:08:18.337Z,28.6
2022-10-06T02:12:59.738Z,19.79
2022-10-06T02:17:40.944Z,24.3
2022-10-06T02:22:22.268Z,19.1
2022-10-06T02:27:04.470Z,23.4
2022-10-06T02:31:46.780Z,20
2022-10-06T02:36:29.092Z,22.7
2022-10-06T02:41:11.310Z,28.4
2022-10-06T02:45:53.620Z,28.8
2022-10-06T02:50:35.925Z,21.3
2022-10-06T02:55:18.137Z,19.5
2022-10-06T03:00:00.453Z,17.4
2022-10-06T03:04:42.763Z,20.9
2022-10-06T03:09:25.036Z,26.4
2022-10-06T03:14:07.287Z,23.3
2022-10-06T03:18:49.599Z,20.8
2022-10-06T03:23:30.912Z,23.8
2022-10-06T03:28:13.121Z,19.1
2022-10-06T03:32:55.434Z,24
2022-10-06T03:37:37.754Z,19.5
2022-10-06T03:42:19.978Z,17.2
2022-10-06T03:47:02.267Z,23.6
2022-10-06T03:51:44.581Z,20.8
2022-10-06T03:56:25.888Z,24
2022-10-06T04:01:07.205Z,15.9
2022-10-06T04:05:48.533Z,20
2022-10-06T04:10:29.869Z,16.79
2022-10-06T04:15:12.031Z,18.7
2022-10-06T04:19:54.344Z,23
2022-10-06T04:24:36.601Z,16.6
2022-10-06T04:29:18.874Z,17.29
2022-10-06T04:34:01.178Z,14.3
2022-10-06T04:38:43.491Z,20.6
2022-10-06T04:43:25.771Z,14.3
2022-10-06T04:48:08.018Z,14.7
2022-10-06T04:52:50.332Z,12.9
2022-10-06T04:57:32.610Z,11.9
2022-10-06T05:02:14.855Z,11.7
2022-10-06T05:06:57.330Z,17.29
2022-10-06T05:11:38.521Z,16.6
2022-10-06T05:16:20.689Z,21.7
2022-10-06T05:21:01.998Z,13.7
2022-10-06T05:25:44.309Z,9.2
2022-10-06T05:30:26.520Z,11.7
2022-10-06T05:35:08.831Z,12.4
2022-10-06T05:39:51.148Z,9.7
2022-10-06T05:44:32.469Z,18.2
2022-10-06T05:49:14.669Z,11.6
2022-10-06T05:53:56.979Z,14.4
2022-10-06T05:58:38.293Z,13.6
2022-10-06T06:03:20.605Z,8.1
2022-10-06T06:08:01.908Z,6.5
2022-10-06T06:12:44.125Z,7.2
2022-10-06T06:17:26.437Z,13
2022-10-06T06:22:08.746Z,8.89
2022-10-06T06:26:50.959Z,5.9
2022-10-06T06:31:33.280Z,12.6
2022-10-06T06:36:15.591Z,16.7
2022-10-06T06:40:57.795Z,9.7
2022-10-06T06:45:40.108Z,8.3
2022-10-06T06:50:22.423Z,5.4
2022-10-06T06:55:04.636Z,4.6
2022-10-06T06:59:46.944Z,4.5
2022-10-06T07:04:29.288Z,5.4
2022-10-06T07:09:10.567Z,4.1
2022-10-06T07:13:52.894Z,6.8
2022-10-06T07:18:35.102Z,6.5
2022-10-06T07:23:17.407Z,7.4
2022-10-06T07:27:59.725Z,3.9
2022-10-06T07:32:41.958Z,3.4
2022-10-06T07:37:23.275Z,3.6
2022-10-06T07:42:04.646Z,6.7
2022-10-06T07:46:46.761Z,6.9
2022-10-06T07:51:28.074Z,13.2
2022-10-06T07:56:09.383Z,5.6
2022-10-06T08:00:51.699Z,5.8
2022-10-06T08:05:34.034Z,5.7
2022-10-06T08:10:16.220Z,5.4
2022-10-06T08:14:58.539Z,7.5
2022-10-06T08:19:40.854Z,10
2022-10-06T08:24:23.053Z,4.19
2022-10-06T08:29:05.382Z,5.3
2022-10-06T08:33:47.682Z,5.6
2022-10-06T08:43:12.206Z,4.1
2022-10-06T08:47:54.521Z,5.5
2022-10-06T08:52:36.729Z,4.1
2022-10-06T08:57:18.047Z,4.8
2022-10-06T09:02:00.355Z,3.5
2022-10-06T09:06:42.568Z,3.5
2022-10-06T09:11:24.880Z,2.4
2022-10-06T09:16:07.193Z,3
2022-10-06T09:20:52.022Z,5
2022-10-06T09:25:36.427Z,3.3
2022-10-06T09:34:59.885Z,3
2022-10-06T09:44:17.963Z,2.8
2022-10-06T09:49:02.015Z,3.5
2022-10-06T09:53:41.483Z,1.9
2022-10-06T09:58:23.796Z,8.7
2022-10-06T10:03:06.067Z,3.6
2022-10-06T10:07:48.347Z,3.5
2022-10-06T10:12:30.634Z,4.5
2022-10-06T10:17:12.845Z,3.6
2022-10-06T10:21:55.157Z,3.4
2022-10-06T10:26:37.467Z,3.5
2022-10-06T10:31:19.683Z,1.2
2022-10-06T10:36:02.051Z,3.3
2022-10-06T10:40:44.317Z,1.2
2022-10-06T10:45:26.521Z,6.7
2022-10-06T10:50:07.830Z,0.9
2022-10-06T10:54:50.143Z,1.4
2022-10-06T10:59:32.441Z,2.5
2022-10-06T11:04:14.690Z,0.9
2022-10-06T11:08:56.978Z,1
2022-10-06T11:13:39.292Z,4.5
2022-10-06T11:18:21.501Z,4.1
2022-10-06T11:23:02.810Z,4.1
2022-10-06T11:27:44.121Z,2.5
2022-10-06T11:32:26.515Z,2.4
2022-10-06T11:37:08.650Z,7.9
2022-10-06T11:41:49.962Z,4.5
2022-10-06T11:46:31.270Z,3.4
2022-10-06T11:51:13.585Z,2.9
2022-10-06T11:55:55.926Z,1.2
2022-10-06T12:00:38.111Z,4.5
2022-10-06T12:05:20.414Z,1.6
2022-10-06T12:10:02.732Z,3.7
2022-10-06T12:14:44.941Z,3
2022-10-06T12:19:27.255Z,1.6
2022-10-06T12:24:09.566Z,5
2022-10-06T12:28:51.781Z,1
2022-10-06T12:33:34.095Z,1.8
2022-10-06T12:38:16.403Z,4.6
2022-10-06T12:42:58.642Z,1.6
2022-10-06T12:47:39.943Z,1.3
2022-10-06T12:52:22.241Z,1.6
2022-10-06T12:57:04.598Z,2.4
2022-10-06T13:01:46.762Z,1.2
2022-10-06T13:06:29.082Z,5.6
2022-10-06T13:11:11.391Z,1.8
2022-10-06T13:15:53.605Z,0.5
2022-10-06T13:20:34.915Z,7.8
2022-10-06T13:25:16.220Z,2.2
2022-10-06T13:29:58.537Z,2.8
2022-10-06T13:34:39.878Z,1.5
2022-10-06T13:39:21.160Z,0.9
2022-10-06T13:44:03.370Z,3.2
2022-10-06T13:48:45.685Z,3.1
2022-10-06T13:53:27.994Z,2.3
2022-10-06T13:58:10.221Z,1.5
2022-10-06T14:02:52.519Z,2.9
2022-10-06T14:12:17.044Z,5.3
2022-10-06T14:16:59.355Z,2.2
2022-10-06T14:21:41.671Z,0.9
2022-10-06T14:26:23.907Z,0.2
2022-10-06T14:31:06.195Z,0.9
2022-10-06T14:35:48.507Z,1.3
2022-10-06T14:40:29.819Z,3.7
2022-10-06T14:45:12.028Z,0.7
2022-10-06T14:49:54.346Z,2.9
2022-10-06T14:59:18.867Z,1.8
2022-10-06T15:04:00.176Z,9
2022-10-06T15:08:41.505Z,1.3
2022-10-06T15:13:23.800Z,1.1
2022-10-06T15:18:06.017Z,2
2022-10-06T15:22:48.336Z,2.2
2022-10-06T15:27:30.642Z,1.6
2022-10-06T15:32:12.854Z,1.1
2022-10-06T15:36:55.165Z,3.5
2022-10-06T15:41:37.471Z,0.4
2022-10-06T15:46:19.694Z,3.9
2022-10-06T15:51:02.009Z,1.8
2022-10-06T15:55:43.311Z,1
2022-10-06T16:00:24.600Z,2.09
2022-10-06T16:05:06.885Z,1.9
2022-10-06T16:09:49.198Z,1.5
2022-10-06T16:14:31.411Z,1.6
2022-10-06T16:19:13.758Z,6.1
2022-10-06T16:23:56.034Z,2.3
2022-10-06T16:28:38.246Z,7.1
2022-10-06T16:33:20.561Z,8.7
2022-10-06T16:38:02.879Z,4.69
2022-10-06T16:42:45.081Z,7.7
2022-10-06T16:47:27.390Z,6.5
2022-10-06T16:52:09.701Z,3.1
2022-10-06T16:56:51.915Z,9.1
2022-10-06T17:01:33.228Z,4.19
2022-10-06T17:06:15.539Z,21.9
2022-10-06T17:10:57.847Z,26.3
2022-10-06T17:15:40.060Z,58.1
2022-10-06T17:20:22.374Z,45.1
2022-10-06T17:25:04.693Z,45.6
2022-10-06T17:29:46.895Z,27.6
2022-10-06T17:34:28.204Z,30.2
2022-10-06T17:39:09.514Z,28.9
2022-10-06T17:43:50.842Z,27
2022-10-06T17:48:32.139Z,17.7
2022-10-06T17:53:14.454Z,25.7
2022-10-06T17:57:56.659Z,23.4
2022-10-06T18:02:38.971Z,15.1
2022-10-06T18:07:21.316Z,14
2022-10-06T18:12:03.504Z,15.6
2022-10-06T18:16:45.816Z,31.3
2022-10-06T18:21:28.119Z,23.8
2022-10-06T18:26:10.328Z,12
2022-10-06T18:30:52.642Z,18.4
2022-10-06T18:35:34.954Z,13.5
2022-10-06T18:40:17.161Z,10.3
2022-10-06T18:44:59.472Z,14.1
2022-10-06T18:49:40.786Z,10.9
2022-10-06T18:54:23.093Z,10.9
2022-10-06T18:59:05.394Z,11
2022-10-06T19:03:47.615Z,12.7
2022-10-06T19:08:29.925Z,7.4
2022-10-06T19:13:12.158Z,24
2022-10-06T19:17:54.455Z,8.6
2022-10-06T19:22:35.762Z,12.2
2022-10-06T19:27:17.075Z,10
2022-10-06T19:31:59.391Z,17.79
2022-10-06T19:36:40.693Z,21.7
2022-10-06T19:41:22.001Z,11.3
2022-10-06T19:46:04.217Z,8.39
2022-10-06T19:50:46.534Z,10.9
2022-10-06T19:55:28.834Z,5
2022-10-06T20:00:11.056Z,6.1
2022-10-06T20:04:53.362Z,7.9
2022-10-06T20:09:35.694Z,7.5
2022-10-06T20:14:17.876Z,11.3
2022-10-06T20:19:00.193Z,9.39
2022-10-06T20:23:42.503Z,7.1
2022-10-06T20:28:24.723Z,9.2
2022-10-06T20:33:07.031Z,10.8
2022-10-06T20:37:49.339Z,14.5
2022-10-06T20:42:30.648Z,8
2022-10-06T20:47:12.862Z,14.4
2022-10-06T20:51:55.165Z,9.5
2022-10-06T20:56:37.476Z,11.5
2022-10-06T21:01:19.700Z,7.8
2022-10-06T21:06:00.995Z,7.6
2022-10-06T21:10:43.310Z,7.1
2022-10-06T21:15:24.622Z,10
2022-10-06T21:20:05.930Z,6
2022-10-06T21:24:48.243Z,6.3
2022-10-06T21:29:29.552Z,8.5
2022-10-06T21:34:10.861Z,8.5
2022-10-06T21:38:53.069Z,10.8
2022-10-06T21:43:35.389Z,10.9
2022-10-06T21:48:17.721Z,13
2022-10-06T21:52:59.904Z,17.79
2022-10-06T21:57:42.231Z,9.1
2022-10-06T22:02:24.546Z,10.2
2022-10-06T22:07:06.738Z,16.2
2022-10-06T22:11:49.062Z,13.4
2022-10-06T22:16:31.364Z,10.1
2022-10-06T22:21:13.588Z,7.2
2022-10-06T22:25:55.887Z,10.6
2022-10-06T22:30:38.206Z,7.4
2022-10-06T22:35:19.512Z,7.7
2022-10-06T22:40:01.721Z,8.2
2022-10-06T22:44:44.045Z,9.39
2022-10-06T22:49:26.395Z,10.5
2022-10-06T22:54:08.559Z,11.1
2022-10-06T22:58:50.867Z,9.6
2022-10-06T23:03:33.183Z,12.7
2022-10-06T23:08:14.489Z,12.8
2022-10-06T23:12:55.799Z,9.3
2022-10-06T23:17:38.018Z,11.6
2022-10-06T23:22:20.325Z,8.8
2022-10-06T23:27:02.637Z,8.39
2022-10-06T23:31:44.848Z,14.2
2022-10-06T23:36:27.164Z,7.3
2022-10-06T23:41:09.470Z,9.6
2022-10-06T23:45:51.679Z,8.7
2022-10-06T23:50:33.992Z,11.8
2022-10-06T23:55:16.310Z,11.9
2022-10-06T23:59:58.516Z,16.7
